createdAt,value
2023-04-22T04:00:29.349Z,136.00
2023-04-22T04:01:30.330Z,128.00
2023-04-22T04:02:30.369Z,138.00
2023-04-22T04:03:31.285Z,149.00
2023-04-22T04:04:30.712Z,161.00
2023-04-22T04:05:30.398Z,175.00
2023-04-22T04:06:30.271Z,188.00
2023-04-22T04:07:30.269Z,199.00
2023-04-22T04:08:30.248Z,217.00
2023-04-22T04:09:30.229Z,225.00
2023-04-22T04:10:30.255Z,241.00
2023-04-22T04:11:30.214Z,250.00
2023-04-22T04:12:30.200Z,265.00
2023-04-22T04:13:30.198Z,284.00
2023-04-22T04:14:30.174Z,297.00
2023-04-22T04:15:30.179Z,314.00
2023-04-22T04:16:30.353Z,329.00
2023-04-22T04:17:30.176Z,342.00
2023-04-22T04:18:30.131Z,354.00
2023-04-22T04:19:30.139Z,375.00
2023-04-22T04:20:30.118Z,391.00
2023-04-22T04:21:30.111Z,407.00
2023-04-22T04:22:30.080Z,424.00
2023-04-22T04:23:30.083Z,442.00
2023-04-22T04:24:30.077Z,454.00
2023-04-22T04:25:30.053Z,469.00
2023-04-22T04:26:30.065Z,488.00
2023-04-22T04:27:30.030Z,504.00
2023-04-22T04:28:30.029Z,520.00
2023-04-22T04:29:30.015Z,542.00
2023-04-22T04:30:31.125Z,556.00
2023-04-22T04:31:30.083Z,576.00
2023-04-22T04:32:29.970Z,592.00
2023-04-22T04:33:29.992Z,606.00
2023-04-22T04:34:29.965Z,626.00
2023-04-22T04:35:29.982Z,642.00
2023-04-22T04:36:29.960Z,659.00
2023-04-22T04:37:29.928Z,670.00
2023-04-22T04:38:29.911Z,691.00
2023-04-22T04:39:29.914Z,705.00
2023-04-22T04:40:29.948Z,718.00
2023-04-22T04:41:29.878Z,733.00
2023-04-22T04:42:29.875Z,752.00
2023-04-22T04:43:29.878Z,768.00
2023-04-22T04:44:29.841Z,786.00
2023-04-22T04:45:29.855Z,805.00
2023-04-22T04:46:29.930Z,818.00
2023-04-22T04:47:29.854Z,830.00
2023-04-22T04:48:29.820Z,848.00
2023-04-22T04:49:29.810Z,862.00
2023-04-22T04:50:29.787Z,876.00
2023-04-22T04:51:29.780Z,896.00
2023-04-22T04:52:29.768Z,907.00
2023-04-22T04:53:29.747Z,917.00
2023-04-22T04:54:29.728Z,937.00
2023-04-22T04:55:29.718Z,952.00
2023-04-22T04:56:29.711Z,966.00
2023-04-22T04:57:29.729Z,980.00
2023-04-22T04:58:29.705Z,1001.00
2023-04-22T04:59:29.692Z,1011.00
2023-04-22T05:00:29.672Z,1032.00
2023-04-22T05:01:29.734Z,1043.00
2023-04-22T05:02:29.789Z,1057.00
2023-04-22T05:03:29.749Z,1072.00
2023-04-22T05:04:29.870Z,1085.00
2023-04-22T05:05:29.632Z,1089.00
2023-04-22T05:06:29.630Z,1106.00
2023-04-22T05:07:29.610Z,1119.00
2023-04-22T05:08:29.582Z,1133.00
2023-04-22T05:09:29.586Z,1141.00
2023-04-22T05:10:29.569Z,1153.00
2023-04-22T05:11:29.573Z,1169.00
2023-04-22T05:12:29.551Z,1184.00
2023-04-22T05:13:29.539Z,1200.00
2023-04-22T05:14:29.594Z,1210.00
2023-04-22T05:15:29.511Z,1220.00
2023-04-22T05:16:29.589Z,1234.00
2023-04-22T05:17:29.535Z,1247.00
2023-04-22T05:18:29.471Z,1261.00
2023-04-22T05:19:29.478Z,1273.00
2023-04-22T05:20:29.448Z,1285.00
2023-04-22T05:21:29.454Z,1292.00
2023-04-22T05:22:29.458Z,1302.00
2023-04-22T05:23:29.423Z,1320.00
2023-04-22T05:24:29.407Z,1330.00
2023-04-22T05:25:29.418Z,1346.00
2023-04-22T05:26:29.383Z,1360.00
2023-04-22T05:27:29.397Z,1374.00
2023-04-22T05:28:29.365Z,1386.00
2023-04-22T05:29:29.361Z,1396.00
2023-04-22T05:30:29.432Z,1408.00
2023-04-22T05:31:29.450Z,1428.00
2023-04-22T05:32:29.356Z,1426.00
2023-04-22T05:33:29.309Z,1446.00
2023-04-22T05:34:29.332Z,1463.00
2023-04-22T05:35:29.291Z,1473.00
2023-04-22T05:36:31.251Z,1489.00
2023-04-22T05:37:29.294Z,1495.00
2023-04-22T05:38:29.279Z,1510.00
2023-04-22T05:39:29.272Z,1523.00
2023-04-22T05:40:29.264Z,1530.00
2023-04-22T05:41:29.224Z,1545.00
2023-04-22T05:42:29.218Z,1560.00
2023-04-22T05:43:29.197Z,1573.00
2023-04-22T05:44:29.199Z,1589.00
2023-04-22T05:45:29.184Z,1601.00
2023-04-22T05:46:29.270Z,1610.00
2023-04-22T05:47:29.245Z,1635.00
2023-04-22T05:48:29.161Z,1641.00
2023-04-22T05:49:29.133Z,1650.00
2023-04-22T05:50:29.116Z,1666.00
2023-04-22T05:51:29.128Z,1675.00
2023-04-22T05:52:29.106Z,1687.00
2023-04-22T05:53:29.117Z,1709.00
2023-04-22T05:54:29.073Z,1715.00
2023-04-22T05:55:29.088Z,1728.00
2023-04-22T05:56:29.060Z,1741.00
2023-04-22T05:57:29.048Z,1747.00
2023-04-22T05:58:29.028Z,1768.00
2023-04-22T05:59:29.020Z,1782.00
2023-04-22T06:00:29.039Z,1800.00
2023-04-22T06:01:29.015Z,1814.00
2023-04-22T06:02:29.376Z,1832.00
2023-04-22T06:03:29.125Z,1839.00
2023-04-22T06:04:29.381Z,1859.00
2023-04-22T06:05:29.059Z,1882.00
2023-04-22T06:06:28.949Z,1883.00
2023-04-22T06:07:28.941Z,1898.00
2023-04-22T06:08:28.948Z,1913.00
2023-04-22T06:09:28.911Z,1916.00
2023-04-22T06:10:28.926Z,1931.00
2023-04-22T06:11:28.911Z,1941.00
2023-04-22T06:12:28.890Z,1950.00
2023-04-22T06:13:28.900Z,1967.00
2023-04-22T06:14:28.883Z,1978.00
2023-04-22T06:15:28.864Z,1997.00
2023-04-22T06:16:28.846Z,2011.00
2023-04-22T06:17:28.964Z,2022.00
2023-04-22T06:18:28.971Z,2033.00
2023-04-22T06:19:28.820Z,2048.00
2023-04-22T06:20:28.821Z,2066.00
2023-04-22T06:21:28.844Z,2074.00
2023-04-22T06:22:28.797Z,2102.00
2023-04-22T06:23:28.783Z,2101.00
2023-04-22T06:24:28.746Z,2118.00
2023-04-22T06:25:28.746Z,2133.00
2023-04-22T06:26:28.730Z,2160.00
2023-04-22T06:27:28.717Z,2175.00
2023-04-22T06:28:28.727Z,2201.00
2023-04-22T06:29:28.730Z,2212.00
2023-04-22T06:30:28.784Z,2231.00
2023-04-22T06:31:28.716Z,2269.00
2023-04-22T06:32:28.702Z,2309.00
2023-04-22T06:33:28.809Z,2327.00
2023-04-22T06:34:28.704Z,2268.00
2023-04-22T06:35:28.613Z,2291.00
2023-04-22T06:36:30.470Z,2322.00
2023-04-22T06:37:28.613Z,2345.00
2023-04-22T06:38:28.603Z,2387.00
2023-04-22T06:39:28.636Z,2415.00
2023-04-22T06:40:28.628Z,2484.00
2023-04-22T06:41:28.606Z,2512.00
2023-04-22T06:42:28.595Z,2570.00
2023-04-22T06:43:28.557Z,2614.00
2023-04-22T06:44:28.531Z,2666.00
2023-04-22T06:45:28.553Z,2780.00
2023-04-22T06:46:28.559Z,2771.00
2023-04-22T06:47:28.486Z,2758.00
2023-04-22T06:48:28.494Z,2848.00
2023-04-22T06:49:28.503Z,2815.00
2023-04-22T06:50:28.546Z,2853.00
2023-04-22T06:51:28.546Z,3127.00
2023-04-22T06:52:28.473Z,2911.00
2023-04-22T06:53:28.528Z,2835.00
2023-04-22T06:54:28.461Z,2967.00
2023-04-22T06:55:28.439Z,2970.00
2023-04-22T06:56:28.442Z,3001.00
2023-04-22T06:57:28.409Z,3002.00
2023-04-22T06:58:28.388Z,3100.00
2023-04-22T06:59:28.394Z,3154.00
2023-04-22T07:00:28.392Z,3253.00
2023-04-22T07:01:28.439Z,3367.00
2023-04-22T07:02:28.488Z,3091.00
2023-04-22T07:03:28.562Z,3126.00
2023-04-22T07:04:28.378Z,3020.00
2023-04-22T07:05:28.331Z,3312.00
2023-04-22T07:06:28.299Z,4071.00
2023-04-22T07:07:28.266Z,2260.00
2023-04-22T07:08:28.280Z,3272.00
2023-04-22T07:09:28.250Z,3264.00
2023-04-22T07:10:28.225Z,3452.00
2023-04-22T07:11:28.261Z,3492.00
2023-04-22T07:12:28.310Z,3509.00
2023-04-22T07:13:28.202Z,3241.00
2023-04-22T07:14:28.280Z,3527.00
2023-04-22T07:15:28.189Z,3465.00
2023-04-22T07:16:28.213Z,3433.00
2023-04-22T07:17:28.259Z,3632.00
2023-04-22T07:18:28.261Z,3435.00
2023-04-22T07:19:28.141Z,3477.00
2023-04-22T07:20:28.202Z,3661.00
2023-04-22T07:21:28.111Z,3460.00
2023-04-22T07:22:28.104Z,3697.00
2023-04-22T07:23:28.133Z,3617.00
2023-04-22T07:24:28.091Z,3581.00
2023-04-22T07:25:28.088Z,3719.00
2023-04-22T07:26:28.132Z,3980.00
2023-04-22T07:27:28.106Z,3596.00
2023-04-22T07:28:28.039Z,3732.00
2023-04-22T07:29:28.044Z,3845.00
2023-04-22T07:30:28.021Z,3691.00
2023-04-22T07:31:28.075Z,3716.00
2023-04-22T07:32:28.012Z,3764.00
2023-04-22T07:33:27.969Z,3871.00
2023-04-22T07:34:27.975Z,3873.00
2023-04-22T07:35:27.956Z,3713.00
2023-04-22T07:36:27.947Z,4020.00
2023-04-22T07:37:27.976Z,3781.00
2023-04-22T07:38:27.937Z,3912.00
2023-04-22T07:39:27.944Z,3858.00
2023-04-22T07:40:27.903Z,3968.00
2023-04-22T07:41:27.899Z,3863.00
2023-04-22T07:42:27.883Z,4188.00
2023-04-22T07:43:27.858Z,3828.00
2023-04-22T07:44:27.889Z,4114.00
2023-04-22T07:45:27.945Z,4233.00
2023-04-22T07:46:27.846Z,4711.00
2023-04-22T07:47:27.812Z,4070.00
2023-04-22T07:48:27.811Z,4085.00
2023-04-22T07:49:27.860Z,4217.00
2023-04-22T07:50:27.884Z,4281.00
2023-04-22T07:51:27.791Z,4142.00
2023-04-22T07:52:27.770Z,4144.00
2023-04-22T07:53:27.798Z,4253.00
2023-04-22T07:54:27.747Z,4576.00
2023-04-22T07:55:27.724Z,4537.00
2023-04-22T07:56:27.766Z,4561.00
2023-04-22T07:57:27.709Z,4630.00
2023-04-22T07:58:27.702Z,4693.00
2023-04-22T07:59:27.700Z,4690.00
2023-04-22T08:00:27.685Z,4778.00
2023-04-22T08:01:27.652Z,4725.00
2023-04-22T08:02:27.756Z,4770.00
2023-04-22T08:03:27.746Z,4772.00
2023-04-22T08:04:28.025Z,4786.00
2023-04-22T08:05:27.681Z,4824.00
2023-04-22T08:06:27.610Z,4871.00
2023-04-22T08:07:33.207Z,4884.00
2023-04-22T08:08:27.607Z,4956.00
2023-04-22T08:09:27.574Z,4941.00
2023-04-22T08:10:27.599Z,4992.00
2023-04-22T08:11:27.579Z,5024.00
2023-04-22T08:12:27.543Z,5071.00
2023-04-22T08:13:27.553Z,5130.00
2023-04-22T08:14:27.538Z,5151.00
2023-04-22T08:15:27.515Z,5089.00
2023-04-22T08:16:27.612Z,5193.00
2023-04-22T08:17:27.513Z,5167.00
2023-04-22T08:18:27.481Z,5155.00
2023-04-22T08:19:27.514Z,5223.00
2023-04-22T08:20:27.460Z,5267.00
2023-04-22T08:21:27.481Z,5250.00
2023-04-22T08:22:27.491Z,5270.00
2023-04-22T08:23:27.498Z,5259.00
2023-04-22T08:24:27.454Z,5263.00
2023-04-22T08:25:27.449Z,5296.00
2023-04-22T08:26:27.470Z,5326.00
2023-04-22T08:27:27.393Z,5350.00
2023-04-22T08:28:27.447Z,5352.00
2023-04-22T08:29:27.422Z,5372.00
2023-04-22T08:30:27.406Z,5373.00
2023-04-22T08:31:27.469Z,5435.00
2023-04-22T08:32:27.411Z,5493.00
2023-04-22T08:33:27.476Z,5491.00
2023-04-22T08:34:27.322Z,5518.00
2023-04-22T08:35:27.312Z,5490.00
2023-04-22T08:36:27.297Z,5519.00
2023-04-22T08:37:27.267Z,5491.00
2023-04-22T08:38:27.260Z,5489.00
2023-04-22T08:39:27.251Z,5452.00
2023-04-22T08:40:27.240Z,5531.00
2023-04-22T08:41:27.230Z,5586.00
2023-04-22T08:42:27.232Z,5596.00
2023-04-22T08:43:27.272Z,5615.00
2023-04-22T08:44:27.198Z,5611.00
2023-04-22T08:45:27.176Z,5665.00
2023-04-22T08:46:27.183Z,5671.00
2023-04-22T08:47:27.220Z,5737.00
2023-04-22T08:48:27.149Z,5792.00
2023-04-22T08:49:27.154Z,5808.00
2023-04-22T08:50:27.135Z,5812.00
2023-04-22T08:51:27.126Z,5810.00
2023-04-22T08:52:27.112Z,5842.00
2023-04-22T08:53:27.097Z,5834.00
2023-04-22T08:54:27.088Z,5818.00
2023-04-22T08:55:27.090Z,5818.00
2023-04-22T08:56:27.065Z,5877.00
2023-04-22T08:57:27.046Z,5918.00
2023-04-22T08:58:27.036Z,6024.00
2023-04-22T08:59:27.022Z,6014.00
2023-04-22T09:00:27.024Z,6034.00
2023-04-22T09:01:27.011Z,6081.00
2023-04-22T09:02:27.063Z,6131.00
2023-04-22T09:03:27.040Z,6188.00
2023-04-22T09:04:26.983Z,6191.00
2023-04-22T09:05:27.969Z,6185.00
2023-04-22T09:06:26.960Z,6299.00
2023-04-22T09:07:26.931Z,6264.00
2023-04-22T09:08:26.927Z,6282.00
2023-04-22T09:09:26.941Z,6340.00
2023-04-22T09:10:26.922Z,6372.00
2023-04-22T09:11:26.901Z,6366.00
2023-04-22T09:12:26.885Z,6418.00
2023-04-22T09:13:26.869Z,6423.00
2023-04-22T09:14:26.865Z,6485.00
2023-04-22T09:15:26.878Z,6529.00
2023-04-22T09:16:26.876Z,6576.00
2023-04-22T09:17:26.875Z,6570.00
2023-04-22T09:18:26.836Z,6631.00
2023-04-22T09:19:26.823Z,6694.00
2023-04-22T09:20:26.802Z,6735.00
2023-04-22T09:21:26.768Z,6785.00
2023-04-22T09:22:26.774Z,6772.00
2023-04-22T09:23:26.744Z,6805.00
2023-04-22T09:24:26.744Z,6801.00
2023-04-22T09:25:26.753Z,6841.00
2023-04-22T09:26:26.756Z,6846.00
2023-04-22T09:27:26.716Z,6840.00
2023-04-22T09:28:26.711Z,6851.00
2023-04-22T09:29:26.700Z,6843.00
2023-04-22T09:30:26.715Z,6841.00
2023-04-22T09:31:26.717Z,6887.00
2023-04-22T09:32:26.720Z,6876.00
2023-04-22T09:33:26.680Z,6961.00
2023-04-22T09:34:26.640Z,6937.00
2023-04-22T09:35:26.840Z,6980.00
2023-04-22T09:36:26.665Z,7002.00
2023-04-22T09:37:35.866Z,6961.00
2023-04-22T09:38:26.615Z,6951.00
2023-04-22T09:39:26.583Z,6894.00
2023-04-22T09:40:26.597Z,6845.00
2023-04-22T09:41:26.570Z,6867.00
2023-04-22T09:42:26.570Z,6884.00
2023-04-22T09:43:26.578Z,6979.00
2023-04-22T09:44:26.537Z,6982.00
2023-04-22T09:45:26.539Z,7043.00
2023-04-22T09:46:26.574Z,7076.00
2023-04-22T09:47:26.505Z,7172.00
2023-04-22T09:48:26.495Z,7179.00
2023-04-22T09:49:26.492Z,7235.00
2023-04-22T09:50:26.483Z,7210.00
2023-04-22T09:51:26.443Z,7194.00
2023-04-22T09:52:26.453Z,7169.00
2023-04-22T09:53:26.491Z,7223.00
2023-04-22T09:54:26.441Z,7225.00
2023-04-22T09:55:26.435Z,7313.00
2023-04-22T09:56:26.407Z,7361.00
2023-04-22T09:57:26.389Z,7355.00
2023-04-22T09:58:26.387Z,7383.00
2023-04-22T09:59:26.366Z,7450.00
2023-04-22T10:00:26.376Z,7434.00
2023-04-22T10:01:26.361Z,7526.00
2023-04-22T10:02:26.375Z,7563.00
2023-04-22T10:03:26.342Z,7603.00
2023-04-22T10:04:26.368Z,7687.00
2023-04-22T10:05:26.318Z,7727.00
2023-04-22T10:06:26.293Z,7809.00
2023-04-22T10:07:26.275Z,7832.00
2023-04-22T10:08:26.260Z,7818.00
2023-04-22T10:09:26.263Z,7800.00
2023-04-22T10:10:26.265Z,7875.00
2023-04-22T10:11:26.252Z,7859.00
2023-04-22T10:12:33.186Z,7855.00
2023-04-22T10:13:26.231Z,7893.00
2023-04-22T10:14:26.229Z,7938.00
2023-04-22T10:15:27.096Z,8043.00
2023-04-22T10:16:26.206Z,8037.00
2023-04-22T10:17:26.189Z,8149.00
2023-04-22T10:18:26.218Z,8227.00
2023-04-22T10:19:26.159Z,8150.00
2023-04-22T10:20:26.178Z,8312.00
2023-04-22T10:21:26.389Z,8375.00
2023-04-22T10:22:26.106Z,8451.00
2023-04-22T10:23:26.105Z,8543.00
2023-04-22T10:24:26.112Z,8483.00
2023-04-22T10:25:26.113Z,8591.00
2023-04-22T10:26:26.061Z,8626.00
2023-04-22T10:27:26.065Z,8756.00
2023-04-22T10:28:26.058Z,8647.00
2023-04-22T10:29:26.860Z,8831.00
2023-04-22T10:30:26.074Z,8788.00
2023-04-22T10:31:26.121Z,8831.00
2023-04-22T10:32:26.040Z,8854.00
2023-04-22T10:33:25.982Z,8939.00
2023-04-22T10:34:25.977Z,8915.00
2023-04-22T10:35:25.980Z,8985.00
2023-04-22T10:36:25.947Z,8957.00
2023-04-22T10:37:25.952Z,8962.00
2023-04-22T10:38:25.958Z,9092.00
2023-04-22T10:39:25.920Z,9131.00
2023-04-22T10:40:25.925Z,9135.00
2023-04-22T10:41:25.920Z,9197.00
2023-04-22T10:42:25.896Z,9264.00
2023-04-22T10:43:25.884Z,9309.00
2023-04-22T10:44:25.870Z,9334.00
2023-04-22T10:45:26.032Z,9414.00
2023-04-22T10:46:25.915Z,9502.00
2023-04-22T10:47:25.848Z,9479.00
2023-04-22T10:48:25.818Z,9526.00
2023-04-22T10:49:25.811Z,9501.00
2023-04-22T10:50:25.834Z,9653.00
2023-04-22T10:51:25.775Z,9603.00
2023-04-22T10:52:25.786Z,9693.00
2023-04-22T10:53:25.755Z,9639.00
2023-04-22T10:54:27.261Z,9796.00
2023-04-22T10:55:25.733Z,9711.00
2023-04-22T10:56:25.752Z,9740.00
2023-04-22T10:57:25.779Z,9762.00
2023-04-22T10:58:25.738Z,9768.00
2023-04-22T10:59:25.703Z,9744.00
2023-04-22T11:00:25.690Z,9773.00
2023-04-22T11:01:25.728Z,9817.00
2023-04-22T11:02:25.745Z,9787.00
2023-04-22T11:03:25.713Z,9742.00
2023-04-22T11:04:25.770Z,9810.00
2023-04-22T11:05:26.341Z,9738.00
2023-04-22T11:06:25.641Z,9726.00
2023-04-22T11:07:25.631Z,9767.00
2023-04-22T11:08:25.597Z,9690.00
2023-04-22T11:09:25.597Z,9730.00
2023-04-22T11:10:25.594Z,9803.00
2023-04-22T11:11:25.564Z,9748.00
2023-04-22T11:12:25.564Z,9741.00
2023-04-22T11:13:25.533Z,9879.00
2023-04-22T11:14:25.540Z,9717.00
2023-04-22T11:15:25.516Z,9815.00
2023-04-22T11:16:25.534Z,9845.00
2023-04-22T11:17:25.539Z,9678.00
2023-04-22T11:18:25.484Z,9784.00
2023-04-22T11:19:25.464Z,9779.00
2023-04-22T11:20:25.479Z,9829.00
2023-04-22T11:21:25.480Z,9824.00
2023-04-22T11:22:25.440Z,9772.00
2023-04-22T11:23:25.438Z,9778.00
2023-04-22T11:24:25.435Z,9642.00
2023-04-22T11:25:25.396Z,9745.00
2023-04-22T11:26:25.400Z,9840.00
2023-04-22T11:27:25.400Z,9783.00
2023-04-22T11:28:25.406Z,9704.00
2023-04-22T11:29:25.372Z,9743.00
2023-04-22T11:30:25.338Z,9733.00
2023-04-22T11:31:25.380Z,9831.00
2023-04-22T11:32:25.377Z,9907.00
2023-04-22T11:33:25.313Z,9847.00
2023-04-22T11:34:25.301Z,9828.00
2023-04-22T11:35:25.302Z,9842.00
2023-04-22T11:36:25.276Z,9901.00
2023-04-22T11:37:25.294Z,9774.00
2023-04-22T11:38:25.265Z,9854.00
2023-04-22T11:39:25.274Z,9870.00
2023-04-22T11:40:30.820Z,9885.00
2023-04-22T11:41:25.232Z,9906.00
2023-04-22T11:42:25.291Z,9903.00
2023-04-22T11:43:25.211Z,9853.00
2023-04-22T11:44:25.209Z,9921.00
2023-04-22T11:45:25.224Z,10039.00
2023-04-22T11:46:25.268Z,10104.00
2023-04-22T11:47:25.197Z,9946.00
2023-04-22T11:48:25.174Z,9480.00
2023-04-22T11:49:25.140Z,10194.00
2023-04-22T11:50:25.137Z,10985.00
2023-04-22T11:51:25.124Z,10645.00
2023-04-22T11:52:25.132Z,10499.00
2023-04-22T11:53:25.105Z,10136.00
2023-04-22T11:54:25.106Z,10257.00
2023-04-22T11:55:25.081Z,10668.00
2023-04-22T11:56:25.064Z,10774.00
2023-04-22T11:57:25.075Z,10994.00
2023-04-22T11:58:25.061Z,11121.00
2023-04-22T11:59:25.031Z,11063.00
2023-04-22T12:00:25.019Z,11110.00
2023-04-22T12:01:25.018Z,11365.00
2023-04-22T12:02:25.123Z,11689.00
2023-04-22T12:03:25.165Z,11690.00
2023-04-22T12:04:25.093Z,11473.00
2023-04-22T12:05:25.032Z,11608.00
2023-04-22T12:06:24.977Z,11910.00
2023-04-22T12:07:25.060Z,12135.00
2023-04-22T12:08:24.932Z,11993.00
2023-04-22T12:09:24.936Z,12065.00
2023-04-22T12:10:24.922Z,11821.00
2023-04-22T12:11:24.939Z,11762.00
2023-04-22T12:12:24.913Z,12217.00
2023-04-22T12:13:24.891Z,11784.00
2023-04-22T12:14:24.866Z,11213.00
2023-04-22T12:15:24.853Z,10711.00
2023-04-22T12:16:24.968Z,13071.00
2023-04-22T12:17:24.894Z,17849.00
2023-04-22T12:18:24.827Z,16108.00
2023-04-22T12:19:24.820Z,15971.00
2023-04-22T12:20:24.811Z,15589.00
2023-04-22T12:21:24.978Z,14755.00
2023-04-22T12:22:24.871Z,15783.00
2023-04-22T12:23:24.781Z,16198.00
2023-04-22T12:24:24.756Z,14304.00
2023-04-22T12:25:24.761Z,16576.00
2023-04-22T12:26:26.784Z,16157.00
2023-04-22T12:27:24.741Z,15504.00
2023-04-22T12:28:24.724Z,15293.00
2023-04-22T12:29:24.712Z,16143.00
2023-04-22T12:30:24.706Z,14749.00
2023-04-22T12:31:24.853Z,16371.00
2023-04-22T12:32:25.011Z,16155.00
2023-04-22T12:33:24.713Z,14519.00
2023-04-22T12:34:24.644Z,16957.00
2023-04-22T12:35:24.655Z,16089.00
2023-04-22T12:36:24.657Z,12073.00
2023-04-22T12:37:24.670Z,14401.00
2023-04-22T12:38:24.607Z,15198.00
2023-04-22T12:39:24.615Z,17468.00
2023-04-22T12:40:24.586Z,18134.00
2023-04-22T12:41:24.620Z,18186.00
2023-04-22T12:42:25.473Z,15984.00
2023-04-22T12:43:24.558Z,18384.00
2023-04-22T12:44:25.249Z,20292.00
2023-04-22T12:45:24.562Z,18753.00
2023-04-22T12:46:24.559Z,19921.00
2023-04-22T12:47:24.541Z,20048.00
2023-04-22T12:48:24.522Z,18566.00
2023-04-22T12:49:24.492Z,20677.00
2023-04-22T12:50:24.491Z,21237.00
2023-04-22T12:51:24.497Z,21533.00
2023-04-22T12:52:24.461Z,20170.00
2023-04-22T12:53:24.462Z,22311.00
2023-04-22T12:54:24.444Z,18384.00
2023-04-22T12:55:24.490Z,21579.00
2023-04-22T12:56:24.433Z,21974.00
2023-04-22T12:57:24.432Z,20793.00
2023-04-22T12:58:24.409Z,23888.00
2023-04-22T12:59:24.386Z,23140.00
2023-04-22T13:00:24.366Z,21896.00
2023-04-22T13:01:24.403Z,21744.00
2023-04-22T13:02:24.434Z,22984.00
2023-04-22T13:03:24.502Z,24228.00
2023-04-22T13:04:24.376Z,21173.00
2023-04-22T13:05:24.382Z,21352.00
2023-04-22T13:06:24.361Z,24084.00
2023-04-22T13:07:24.397Z,25102.00
2023-04-22T13:08:24.341Z,29075.00
2023-04-22T13:09:24.292Z,23763.00
2023-04-22T13:10:24.273Z,22255.00
2023-04-22T13:11:24.258Z,26535.00
2023-04-22T13:12:24.256Z,27696.00
2023-04-22T13:13:24.268Z,27643.00
2023-04-22T13:14:24.228Z,24432.00
2023-04-22T13:15:24.274Z,24289.00
2023-04-22T13:16:24.273Z,26365.00
2023-04-22T13:17:24.270Z,29651.00
2023-04-22T13:18:24.196Z,26894.00
2023-04-22T13:19:24.192Z,25305.00
2023-04-22T13:20:24.152Z,24988.00
2023-04-22T13:21:24.171Z,26335.00
2023-04-22T13:22:24.150Z,30437.00
2023-04-22T13:23:24.175Z,31705.00
2023-04-22T13:24:24.137Z,30006.00
2023-04-22T13:25:24.118Z,27526.00
2023-04-22T13:26:24.122Z,73746.00
2023-04-22T13:27:24.125Z,72269.00
2023-04-22T13:28:24.135Z,32848.00
2023-04-22T13:29:24.120Z,29007.00
2023-04-22T13:30:24.114Z,74981.00
2023-04-22T13:31:24.092Z,73717.00
2023-04-22T13:32:24.126Z,72878.00
2023-04-22T13:33:24.088Z,73255.00
2023-04-22T13:34:24.068Z,74270.00
2023-04-22T13:35:24.002Z,73376.00
2023-04-22T13:36:23.997Z,72979.00
2023-04-22T13:37:24.071Z,73945.00
2023-04-22T13:38:23.996Z,73501.00
2023-04-22T13:39:24.005Z,73292.00
2023-04-22T13:40:23.975Z,72734.00
2023-04-22T13:41:23.976Z,35421.00
2023-04-22T13:42:23.980Z,73907.00
2023-04-22T13:43:23.948Z,73669.00
2023-04-22T13:44:23.921Z,72892.00
2023-04-22T13:45:25.320Z,73130.00
2023-04-22T13:46:24.008Z,75293.00
2023-04-22T13:47:24.034Z,71626.00
2023-04-22T13:48:23.888Z,36337.00
2023-04-22T13:49:23.900Z,35899.00
2023-04-22T13:50:23.930Z,75086.00
2023-04-22T13:51:23.859Z,73791.00
2023-04-22T13:52:23.920Z,73314.00
2023-04-22T13:53:23.826Z,75049.00
2023-04-22T13:54:23.808Z,76178.00
2023-04-22T13:55:23.851Z,75801.00
2023-04-22T13:56:23.819Z,75755.00
2023-04-22T13:57:23.802Z,76347.00
2023-04-22T13:58:23.798Z,76798.00
2023-04-22T13:59:23.787Z,74495.00
2023-04-22T14:00:23.775Z,74204.00
2023-04-22T14:01:23.826Z,75662.00
2023-04-22T14:02:23.858Z,76077.00
2023-04-22T14:03:23.995Z,75070.00
2023-04-22T14:04:23.758Z,74467.00
2023-04-22T14:05:23.704Z,74547.00
2023-04-22T14:06:23.705Z,75656.00
2023-04-22T14:07:23.713Z,74622.00
2023-04-22T14:08:23.727Z,74466.00
2023-04-22T14:09:23.675Z,73516.00
2023-04-22T14:10:23.714Z,73282.00
2023-04-22T14:11:23.687Z,73081.00
2023-04-22T14:12:23.624Z,33252.00
2023-04-22T14:13:23.664Z,29221.00
2023-04-22T14:14:23.609Z,32067.00
2023-04-22T14:15:23.708Z,72880.00
2023-04-22T14:16:23.638Z,72961.00
2023-04-22T14:17:23.606Z,36474.00
2023-04-22T14:18:23.582Z,74023.00
2023-04-22T14:19:23.626Z,73633.00
2023-04-22T14:20:23.542Z,75257.00
2023-04-22T14:21:25.081Z,74826.00
2023-04-22T14:22:23.583Z,72091.00
2023-04-22T14:23:23.524Z,34130.00
2023-04-22T14:24:23.628Z,34520.00
2023-04-22T14:25:23.536Z,29567.00
2023-04-22T14:26:23.516Z,30703.00
2023-04-22T14:27:23.494Z,76211.00
2023-04-22T14:28:23.502Z,76730.00
2023-04-22T14:29:23.513Z,76970.00
2023-04-22T14:30:23.459Z,75763.00
2023-04-22T14:31:23.541Z,75631.00
2023-04-22T14:32:23.466Z,76838.00
2023-04-22T14:33:23.467Z,77831.00
2023-04-22T14:34:23.448Z,78492.00
2023-04-22T14:35:23.432Z,78446.00
2023-04-22T14:36:23.434Z,79182.00
2023-04-22T14:37:24.025Z,77540.00
2023-04-22T14:38:23.407Z,76472.00
2023-04-22T14:39:23.395Z,78065.00
2023-04-22T14:40:23.470Z,78601.00
2023-04-22T14:41:23.358Z,76121.00
2023-04-22T14:42:23.348Z,74868.00
2023-04-22T14:43:23.405Z,74583.00
2023-04-22T14:44:23.316Z,75457.00
2023-04-22T14:45:23.302Z,77234.00
2023-04-22T14:46:23.340Z,77323.00
2023-04-22T14:47:23.353Z,72125.00
2023-04-22T14:48:23.279Z,36172.00
2023-04-22T14:49:23.277Z,16102.00
2023-04-22T14:50:23.636Z,18825.00
2023-04-22T14:51:23.265Z,27905.00
2023-04-22T14:52:23.272Z,30308.00
2023-04-22T14:53:23.261Z,23728.00
2023-04-22T14:54:23.207Z,23955.00
2023-04-22T14:55:24.164Z,28510.00
2023-04-22T14:56:23.194Z,22003.00
2023-04-22T14:57:23.191Z,24436.00
2023-04-22T14:58:23.205Z,28223.00
2023-04-22T14:59:23.161Z,27043.00
2023-04-22T15:00:23.167Z,14169.00
2023-04-22T15:01:23.181Z,7007.00
2023-04-22T15:02:23.327Z,78448.00
2023-04-22T15:03:23.276Z,75586.00
2023-04-22T15:04:23.324Z,72656.00
2023-04-22T15:05:23.100Z,33813.00
2023-04-22T15:06:23.164Z,30790.00
2023-04-22T15:07:23.086Z,76433.00
2023-04-22T15:08:23.069Z,77395.00
2023-04-22T15:09:23.046Z,74106.00
2023-04-22T15:10:23.039Z,69709.00
2023-04-22T15:11:23.058Z,32185.00
2023-04-22T15:12:23.044Z,28288.00
2023-04-22T15:13:23.027Z,19719.00
2023-04-22T15:14:22.996Z,15412.00
2023-04-22T15:15:23.005Z,24455.00
2023-04-22T15:16:23.068Z,78665.00
2023-04-22T15:17:22.993Z,80182.00
2023-04-22T15:18:22.980Z,78888.00
2023-04-22T15:19:22.947Z,78255.00
2023-04-22T15:20:22.968Z,79368.00
2023-04-22T15:21:23.325Z,80542.00
2023-04-22T15:22:22.987Z,79746.00
2023-04-22T15:23:23.014Z,78942.00
2023-04-22T15:24:22.911Z,78357.00
2023-04-22T15:25:22.890Z,78703.00
2023-04-22T15:26:22.931Z,78128.00
2023-04-22T15:27:22.917Z,77873.00
2023-04-22T15:28:22.863Z,78677.00
2023-04-22T15:29:22.850Z,79773.00
2023-04-22T15:30:22.830Z,80223.00
2023-04-22T15:31:22.957Z,80997.00
2023-04-22T15:32:22.826Z,80139.00
2023-04-22T15:33:24.159Z,78893.00
2023-04-22T15:34:22.830Z,79192.00
2023-04-22T15:35:22.812Z,79587.00
2023-04-22T15:36:22.796Z,77581.00
2023-04-22T15:37:22.780Z,77728.00
2023-04-22T15:38:22.757Z,77372.00
2023-04-22T15:39:22.837Z,77523.00
2023-04-22T15:40:22.788Z,77908.00
2023-04-22T15:41:22.739Z,78060.00
2023-04-22T15:42:22.738Z,77888.00
2023-04-22T15:43:22.741Z,77405.00
2023-04-22T15:44:22.707Z,78390.00
2023-04-22T15:45:22.840Z,78537.00
2023-04-22T15:46:22.770Z,79412.00
2023-04-22T15:47:22.785Z,80871.00
2023-04-22T15:48:22.705Z,80648.00
2023-04-22T15:49:22.706Z,79291.00
2023-04-22T15:50:22.651Z,79490.00
2023-04-22T15:51:22.656Z,80354.00
2023-04-22T15:52:25.426Z,80384.00
2023-04-22T15:53:22.917Z,80463.00
2023-04-22T15:54:23.481Z,81691.00
2023-04-22T15:55:23.214Z,80013.00
2023-04-22T15:56:22.924Z,78901.00
2023-04-22T15:57:24.504Z,79683.00
2023-04-22T15:58:22.562Z,80114.00
2023-04-22T15:59:22.553Z,80818.00